createdAt,value
2023-12-29T00:00:47.517Z,41.22
2023-12-29T00:05:52.859Z,34.70
2023-12-29T00:10:57.046Z,34.92
2023-12-29T00:16:00.768Z,42.15
2023-12-29T00:21:07.853Z,37.55
2023-12-29T00:26:11.847Z,29.92
2023-12-29T00:31:17.263Z,32.88
2023-12-29T00:36:23.467Z,30.70
2023-12-29T00:41:27.174Z,30.13
2023-12-29T00:46:30.844Z,29.42
2023-12-29T00:51:41.663Z,28.00
2023-12-29T00:56:50.695Z,30.48
2023-12-29T01:01:54.383Z,35.13
2023-12-29T01:06:59.814Z,28.15
2023-12-29T01:12:03.505Z,30.80
2023-12-29T01:17:07.153Z,34.00
2023-12-29T01:22:13.823Z,32.13
2023-12-29T01:27:17.576Z,34.17
2023-12-29T01:32:21.620Z,28.70
2023-12-29T01:37:26.925Z,32.22
2023-12-29T01:42:30.666Z,31.07
2023-12-29T01:47:34.445Z,31.13
2023-12-29T01:52:40.168Z,28.63
2023-12-29T01:57:44.749Z,30.00
2023-12-29T02:02:49.246Z,29.13
2023-12-29T02:07:54.656Z,28.15
2023-12-29T02:12:58.475Z,29.67
2023-12-29T02:18:08.112Z,33.50
2023-12-29T02:23:13.707Z,29.95
2023-12-29T02:28:27.681Z,40.70
2023-12-29T02:33:37.692Z,38.92
2023-12-29T02:38:42.105Z,41.90
2023-12-29T02:43:47.405Z,34.67
2023-12-29T02:48:51.094Z,30.53
2023-12-29T02:53:54.768Z,46.78
2023-12-29T02:59:00.044Z,32.38
2023-12-29T03:04:03.869Z,29.30
2023-12-29T03:09:07.559Z,41.88
2023-12-29T03:14:13.360Z,48.30
2023-12-29T03:19:17.161Z,31.50
2023-12-29T03:24:20.887Z,30.30
2023-12-29T03:29:26.243Z,39.95
2023-12-29T03:34:30.059Z,40.45
2023-12-29T03:39:33.754Z,28.95
2023-12-29T03:44:40.043Z,28.58
2023-12-29T03:49:43.863Z,30.77
2023-12-29T03:54:47.742Z,28.38
2023-12-29T03:59:53.190Z,29.02
2023-12-29T04:04:57.042Z,36.42
2023-12-29T04:10:00.977Z,38.85
2023-12-29T04:15:07.171Z,38.17
2023-12-29T04:20:11.428Z,29.58
2023-12-29T04:25:15.231Z,42.38
2023-12-29T04:30:20.749Z,46.30
2023-12-29T04:35:24.588Z,31.73
2023-12-29T04:40:28.285Z,35.25
2023-12-29T04:45:33.633Z,31.98
2023-12-29T04:50:37.343Z,33.03
2023-12-29T04:55:41.769Z,40.95
2023-12-29T05:00:47.868Z,33.63
2023-12-29T05:05:51.559Z,38.67
2023-12-29T05:10:55.260Z,34.20
2023-12-29T05:16:00.592Z,34.50
2023-12-29T05:21:04.329Z,35.22
2023-12-29T05:26:08.008Z,40.17
2023-12-29T05:31:13.348Z,43.35
2023-12-29T05:36:17.085Z,54.05
2023-12-29T05:41:21.615Z,37.35
2023-12-29T05:46:27.043Z,38.22
2023-12-29T05:51:30.819Z,32.65
2023-12-29T05:56:34.509Z,39.63
2023-12-29T06:01:39.969Z,37.88
2023-12-29T06:06:44.766Z,34.05
2023-12-29T06:11:48.522Z,44.05
2023-12-29T06:16:54.903Z,49.20
2023-12-29T06:21:58.654Z,31.42
2023-12-29T06:27:02.434Z,33.83
2023-12-29T06:32:08.362Z,42.50
2023-12-29T06:42:15.124Z,34.80
2023-12-29T06:47:20.514Z,40.97
2023-12-29T06:52:24.237Z,38.47
2023-12-29T06:57:27.926Z,36.20
2023-12-29T07:02:33.328Z,31.00
2023-12-29T07:07:37.658Z,45.72
2023-12-29T07:12:42.130Z,35.05
2023-12-29T07:17:47.528Z,46.53
2023-12-29T07:22:51.280Z,40.30
2023-12-29T07:27:55.023Z,39.75
2023-12-29T07:33:00.513Z,32.63
2023-12-29T07:38:04.311Z,28.02
2023-12-29T07:43:08.124Z,45.83
2023-12-29T07:48:13.699Z,30.33
2023-12-29T07:53:17.506Z,31.02
2023-12-29T07:58:21.296Z,41.00
2023-12-29T08:03:26.629Z,90.57
2023-12-29T08:08:30.294Z,41.07
2023-12-29T08:13:33.961Z,38.33
2023-12-29T08:18:39.391Z,32.65
2023-12-29T08:23:43.118Z,31.90
2023-12-29T08:28:47.127Z,33.67
2023-12-29T08:33:52.502Z,32.22
2023-12-29T08:38:56.163Z,29.13
2023-12-29T08:43:59.801Z,31.90
2023-12-29T08:49:05.300Z,30.58
2023-12-29T08:54:08.979Z,25.88
2023-12-29T08:59:12.614Z,32.83
2023-12-29T09:04:18.086Z,27.20
2023-12-29T09:09:21.881Z,25.45
2023-12-29T09:14:25.545Z,29.33
2023-12-29T09:19:36.401Z,29.17
2023-12-29T09:24:44.352Z,24.48
2023-12-29T09:29:48.765Z,30.98
2023-12-29T09:34:54.140Z,34.05
2023-12-29T09:39:57.855Z,28.33
2023-12-29T09:45:07.322Z,26.77
2023-12-29T09:50:13.900Z,28.45
2023-12-29T09:55:18.497Z,27.77
2023-12-29T10:00:23.332Z,24.55
2023-12-29T10:05:28.719Z,35.35
2023-12-29T10:10:33.594Z,27.02
2023-12-29T10:15:44.131Z,46.90
2023-12-29T10:20:56.416Z,36.55
2023-12-29T10:26:00.405Z,40.00
2023-12-29T10:31:06.096Z,40.33
2023-12-29T10:36:11.429Z,36.33
2023-12-29T10:41:16.711Z,39.97
2023-12-29T10:46:20.446Z,34.97
2023-12-29T10:51:29.451Z,36.60
2023-12-29T10:56:33.355Z,40.90
2023-12-29T11:01:38.477Z,43.90
2023-12-29T11:06:47.314Z,41.33
2023-12-29T11:11:51.216Z,39.75
2023-12-29T11:16:57.066Z,48.05
2023-12-29T11:27:08.748Z,44.28
2023-12-29T11:32:18.173Z,48.28
2023-12-29T11:37:31.673Z,54.00
2023-12-29T11:42:40.464Z,49.22
2023-12-29T11:47:44.172Z,45.58
2023-12-29T11:52:49.834Z,39.97
2023-12-29T11:57:53.589Z,54.07
2023-12-29T12:02:57.395Z,33.15
2023-12-29T12:08:02.715Z,42.47
2023-12-29T12:13:06.979Z,32.97
2023-12-29T12:18:13.634Z,28.70
2023-12-29T12:23:20.089Z,30.65
2023-12-29T12:28:23.849Z,30.10
2023-12-29T12:33:27.724Z,29.50
2023-12-29T12:38:33.064Z,32.28
2023-12-29T12:43:40.483Z,41.50
2023-12-29T12:48:46.357Z,46.88
2023-12-29T12:58:55.014Z,46.92
2023-12-29T13:04:00.972Z,39.90
2023-12-29T13:14:10.329Z,36.95
2023-12-29T13:19:21.567Z,53.72
2023-12-29T13:24:27.728Z,37.85
2023-12-29T13:29:32.354Z,19.52
2023-12-29T13:34:42.084Z,12.30
2023-12-29T13:39:55.110Z,8.60
2023-12-29T13:45:00.876Z,5.72
2023-12-29T13:50:05.069Z,1.10
2023-12-29T13:55:10.905Z,1.55
2023-12-29T14:05:30.118Z,0.43
2023-12-29T14:10:36.308Z,1.10
2023-12-29T14:15:41.494Z,1.23
2023-12-29T14:20:45.201Z,4.00
2023-12-29T14:25:50.723Z,2.45
2023-12-29T14:31:04.197Z,0.40
2023-12-29T14:36:08.354Z,0.68
2023-12-29T14:41:13.616Z,1.65
2023-12-29T14:46:17.416Z,0.17
2023-12-29T14:51:21.156Z,1.33
2023-12-29T14:56:26.519Z,2.13
2023-12-29T15:01:30.283Z,0.73
2023-12-29T15:06:34.014Z,1.67
2023-12-29T15:11:39.376Z,1.30
2023-12-29T15:16:43.015Z,3.27
2023-12-29T15:21:46.696Z,7.38
2023-12-29T15:26:52.279Z,2.47
2023-12-29T15:31:56.091Z,7.95
2023-12-29T15:36:59.864Z,3.15
2023-12-29T15:42:05.497Z,2.70
2023-12-29T15:47:09.121Z,4.15
2023-12-29T15:52:13.220Z,3.72
2023-12-29T15:57:19.875Z,4.17
2023-12-29T16:02:23.561Z,5.10
2023-12-29T16:07:27.246Z,4.22
2023-12-29T16:12:32.552Z,7.70
2023-12-29T16:17:37.390Z,7.40
2023-12-29T16:22:41.139Z,4.40
2023-12-29T16:27:46.707Z,7.05
2023-12-29T16:32:50.556Z,8.18
2023-12-29T16:37:54.308Z,6.05
2023-12-29T16:42:59.903Z,8.52
2023-12-29T16:48:03.821Z,8.98
2023-12-29T16:53:08.397Z,9.02
2023-12-29T16:58:13.859Z,9.85
2023-12-29T17:03:17.734Z,7.47
2023-12-29T17:08:23.625Z,7.25
2023-12-29T17:13:28.999Z,11.60
2023-12-29T17:18:32.908Z,9.32
2023-12-29T17:23:37.208Z,7.95
2023-12-29T17:28:42.656Z,9.07
2023-12-29T17:33:46.466Z,9.38
2023-12-29T17:38:50.200Z,8.43
2023-12-29T17:43:55.485Z,6.05
2023-12-29T17:48:59.296Z,8.37
2023-12-29T17:54:03.709Z,9.30
2023-12-29T17:59:09.956Z,7.38
2023-12-29T18:04:13.746Z,9.13
2023-12-29T18:09:17.427Z,8.45
2023-12-29T18:14:22.794Z,12.55
2023-12-29T18:19:26.521Z,9.35
2023-12-29T18:24:30.259Z,7.00
2023-12-29T18:29:35.624Z,8.02
2023-12-29T18:34:40.145Z,4.38
2023-12-29T18:39:44.192Z,6.97
2023-12-29T18:44:49.929Z,11.32
2023-12-29T18:49:53.912Z,11.10
2023-12-29T18:54:57.690Z,11.43
2023-12-29T19:00:02.989Z,7.63
2023-12-29T19:05:07.462Z,9.38
2023-12-29T19:10:11.466Z,6.60
2023-12-29T19:15:17.891Z,8.95
2023-12-29T19:20:21.616Z,9.85
2023-12-29T19:25:26.034Z,7.60
2023-12-29T19:30:31.349Z,15.52
2023-12-29T19:35:34.999Z,9.57
2023-12-29T19:40:38.714Z,10.80
2023-12-29T19:45:44.198Z,13.63
2023-12-29T19:50:47.903Z,8.02
2023-12-29T19:55:51.592Z,7.28
2023-12-29T20:00:57.299Z,7.50
2023-12-29T20:06:01.172Z,6.57
2023-12-29T20:11:05.117Z,10.02
2023-12-29T20:16:10.719Z,6.47
2023-12-29T20:21:22.696Z,5.93
2023-12-29T20:26:28.151Z,7.13
2023-12-29T20:31:34.000Z,6.13
2023-12-29T20:36:38.392Z,6.03
2023-12-29T20:41:42.048Z,7.78
2023-12-29T20:46:47.445Z,5.10
2023-12-29T20:51:51.103Z,7.07
2023-12-29T20:56:54.752Z,6.72
2023-12-29T21:02:00.491Z,8.90
2023-12-29T21:12:08.066Z,8.15
2023-12-29T21:17:14.924Z,8.45
2023-12-29T21:22:18.624Z,6.57
2023-12-29T21:27:22.262Z,4.78
2023-12-29T21:32:27.694Z,5.07
2023-12-29T21:37:31.446Z,4.35
2023-12-29T21:42:36.151Z,6.97
2023-12-29T21:47:42.503Z,4.35
2023-12-29T21:52:46.444Z,4.70
2023-12-29T21:57:50.889Z,5.15
2023-12-29T22:02:56.215Z,8.13
2023-12-29T22:08:00.568Z,8.47
2023-12-29T22:13:04.637Z,5.07
2023-12-29T22:18:10.338Z,5.13
2023-12-29T22:23:14.019Z,4.45
2023-12-29T22:28:17.762Z,3.50
2023-12-29T22:33:23.110Z,1.83
2023-12-29T22:38:26.849Z,0.88
2023-12-29T22:43:30.629Z,1.10
2023-12-29T22:48:36.363Z,2.25
2023-12-29T22:53:40.057Z,2.28
2023-12-29T22:58:43.730Z,1.10
2023-12-29T23:03:49.553Z,1.42
2023-12-29T23:08:53.274Z,1.80
2023-12-29T23:13:56.947Z,1.67
2023-12-29T23:19:02.353Z,1.13
2023-12-29T23:24:06.657Z,2.78
2023-12-29T23:29:10.326Z,2.78
2023-12-29T23:34:16.572Z,0.55
2023-12-29T23:39:20.311Z,1.70
2023-12-29T23:44:23.968Z,1.83
2023-12-29T23:49:29.718Z,0.13
2023-12-29T23:54:33.441Z,0.75
2023-12-29T23:59:37.133Z,1.45
